createdAt,value
2018-02-18T00:00:15.885Z,85.60
2018-02-18T00:02:44.147Z,85.61
2018-02-18T00:05:12.423Z,85.77
2018-02-18T00:07:40.687Z,85.58
2018-02-18T00:10:09.739Z,85.69
2018-02-18T00:12:38.011Z,86.77
2018-02-18T00:15:08.655Z,87.38
2018-02-18T00:17:36.917Z,87.63
2018-02-18T00:20:05.278Z,87.30
2018-02-18T00:22:33.537Z,87.65
2018-02-18T00:25:01.815Z,89.71
2018-02-18T00:27:30.074Z,89.44
2018-02-18T00:29:59.129Z,89.19
2018-02-18T00:32:27.415Z,88.76
2018-02-18T00:34:55.740Z,88.75
2018-02-18T00:37:24.015Z,88.41
2018-02-18T00:39:52.564Z,88.12
2018-02-18T00:42:21.600Z,88.90
2018-02-18T00:44:49.978Z,88.89
2018-02-18T00:47:18.230Z,88.94
2018-02-18T00:49:46.519Z,88.48
2018-02-18T00:52:14.790Z,88.38
2018-02-18T00:54:43.063Z,88.46
2018-02-18T00:57:11.339Z,88.53
2018-02-18T00:59:39.656Z,89.55
2018-02-18T01:02:07.940Z,89.24
2018-02-18T01:04:36.203Z,89.03
2018-02-18T01:07:04.478Z,88.71
2018-02-18T01:09:32.842Z,88.88
2018-02-18T01:12:01.116Z,89.08
2018-02-18T01:14:29.672Z,88.41
2018-02-18T01:16:58.070Z,88.12
2018-02-18T01:19:26.363Z,89.30
2018-02-18T01:22:16.339Z,88.95
2018-02-18T01:24:44.623Z,88.64
2018-02-18T01:27:12.911Z,88.63
2018-02-18T01:29:41.189Z,87.82
2018-02-18T01:32:09.447Z,88.19
2018-02-18T01:34:37.746Z,88.67
2018-02-18T01:37:06.040Z,88.19
2018-02-18T01:39:34.323Z,88.40
2018-02-18T01:42:02.598Z,88.44
2018-02-18T01:44:30.863Z,87.92
2018-02-18T01:46:59.123Z,87.30
2018-02-18T01:49:27.391Z,87.03
2018-02-18T01:51:55.650Z,86.01
2018-02-18T01:54:23.927Z,87.16
2018-02-18T01:56:52.182Z,87.09
2018-02-18T01:59:20.442Z,87.05
2018-02-18T02:01:49.534Z,87.42
2018-02-18T02:04:18.578Z,87.33
2018-02-18T02:06:46.924Z,87.18
2018-02-18T02:09:15.223Z,87.68
2018-02-18T02:11:43.475Z,88.04
2018-02-18T02:14:11.751Z,88.37
2018-02-18T02:16:40.009Z,87.82
2018-02-18T02:19:09.052Z,87.43
2018-02-18T02:21:37.309Z,87.72
2018-02-18T02:24:05.576Z,87.76
2018-02-18T02:26:33.847Z,88.22
2018-02-18T02:29:02.124Z,87.64
2018-02-18T02:31:30.426Z,88.46
2018-02-18T02:33:58.695Z,88.40
2018-02-18T02:36:26.955Z,88.08
2018-02-18T02:38:55.282Z,88.27
2018-02-18T02:41:23.556Z,88.91
2018-02-18T02:43:51.832Z,89.39
2018-02-18T02:46:20.118Z,89.46
2018-02-18T02:48:48.382Z,89.46
2018-02-18T02:51:16.675Z,88.88
2018-02-18T02:53:44.948Z,88.78
2018-02-18T02:56:13.242Z,89.03
2018-02-18T02:58:42.267Z,89.71
2018-02-18T03:01:10.533Z,89.56
2018-02-18T03:03:38.816Z,89.23
2018-02-18T03:06:07.078Z,90.23
2018-02-18T03:08:35.358Z,89.77
2018-02-18T03:11:03.625Z,89.19
2018-02-18T03:13:32.671Z,88.98
2018-02-18T03:16:00.939Z,87.84
2018-02-18T03:18:29.207Z,87.49
2018-02-18T03:20:57.511Z,87.28
2018-02-18T03:23:25.775Z,87.33
2018-02-18T03:25:54.045Z,87.79
2018-02-18T03:28:23.079Z,87.57
2018-02-18T03:30:52.112Z,87.14
2018-02-18T03:33:20.422Z,86.58
2018-02-18T03:35:48.678Z,86.87
2018-02-18T03:38:16.979Z,86.95
2018-02-18T03:40:45.227Z,86.32
2018-02-18T03:43:13.501Z,86.74
2018-02-18T03:45:41.793Z,87.17
2018-02-18T03:48:10.060Z,87.74
2018-02-18T03:50:38.341Z,87.89
2018-02-18T03:53:06.605Z,88.52
2018-02-18T03:55:34.887Z,88.97
2018-02-18T03:58:03.155Z,89.53
2018-02-18T04:00:31.421Z,89.53
2018-02-18T04:02:59.691Z,89.35
2018-02-18T04:05:27.963Z,88.75
2018-02-18T04:07:56.234Z,89.40
2018-02-18T04:10:24.496Z,88.86
2018-02-18T04:12:53.560Z,88.46
2018-02-18T04:15:21.830Z,88.74
2018-02-18T04:17:50.100Z,88.39
2018-02-18T04:20:18.376Z,88.49
2018-02-18T04:22:46.643Z,89.22
2018-02-18T04:25:14.913Z,90.26
2018-02-18T04:27:43.182Z,91.23
2018-02-18T04:30:11.447Z,92.02
2018-02-18T04:32:39.770Z,93.00
2018-02-18T04:35:08.035Z,93.49
2018-02-18T04:37:36.503Z,95.72
2018-02-18T04:40:04.764Z,98.51
2018-02-18T04:42:33.042Z,98.48
2018-02-18T04:45:01.303Z,99.09
2018-02-18T04:47:29.586Z,99.76
2018-02-18T04:49:57.847Z,99.09
2018-02-18T04:52:26.114Z,99.35
2018-02-18T04:54:54.403Z,99.29
2018-02-18T04:57:22.671Z,98.79
2018-02-18T04:59:50.950Z,98.71
2018-02-18T05:02:19.228Z,98.34
2018-02-18T05:04:47.482Z,97.85
2018-02-18T05:07:16.546Z,97.41
2018-02-18T05:09:44.808Z,96.83
2018-02-18T05:12:13.112Z,96.51
2018-02-18T05:14:41.379Z,96.32
2018-02-18T05:17:09.659Z,96.07
2018-02-18T05:19:37.929Z,96.14
2018-02-18T05:22:06.202Z,96.07
2018-02-18T05:24:34.479Z,95.81
2018-02-18T05:27:03.544Z,95.65
2018-02-18T05:29:31.839Z,95.16
2018-02-18T05:32:00.108Z,94.89
2018-02-18T05:34:28.375Z,94.98
2018-02-18T05:36:56.675Z,94.50
2018-02-18T05:39:24.935Z,94.08
2018-02-18T05:41:53.219Z,95.12
2018-02-18T05:44:21.488Z,95.70
2018-02-18T05:46:49.770Z,95.67
2018-02-18T05:49:18.027Z,95.49
2018-02-18T05:51:46.304Z,95.02
2018-02-18T05:54:14.597Z,94.23
2018-02-18T05:56:42.854Z,93.74
2018-02-18T05:59:11.128Z,93.46
2018-02-18T06:01:39.395Z,93.05
2018-02-18T06:04:07.660Z,93.27
2018-02-18T06:06:35.936Z,93.91
2018-02-18T06:09:04.194Z,94.66
2018-02-18T06:11:33.244Z,96.00
2018-02-18T06:14:01.519Z,96.31
2018-02-18T06:16:29.798Z,95.96
2018-02-18T06:18:58.132Z,95.63
2018-02-18T06:21:26.423Z,96.02
2018-02-18T06:23:54.703Z,95.56
2018-02-18T06:26:22.971Z,94.89
2018-02-18T06:28:51.254Z,94.61
2018-02-18T06:31:19.529Z,93.61
2018-02-18T06:33:47.807Z,93.43
2018-02-18T06:36:16.088Z,94.00
2018-02-18T06:38:44.351Z,94.24
2018-02-18T06:41:12.624Z,94.04
2018-02-18T06:43:40.896Z,94.34
2018-02-18T06:46:09.172Z,93.90
2018-02-18T06:48:37.459Z,93.83
2018-02-18T06:51:05.723Z,93.69
2018-02-18T06:53:34.062Z,92.99
2018-02-18T06:56:02.330Z,92.14
2018-02-18T06:58:30.599Z,92.04
2018-02-18T07:00:58.875Z,91.84
2018-02-18T07:03:27.203Z,91.68
2018-02-18T07:05:55.531Z,90.77
2018-02-18T07:08:23.810Z,90.52
2018-02-18T07:10:52.074Z,90.25
2018-02-18T07:13:20.346Z,90.60
2018-02-18T07:15:48.666Z,91.25
2018-02-18T07:18:17.704Z,91.08
2018-02-18T07:20:45.968Z,90.78
2018-02-18T07:23:14.246Z,90.36
2018-02-18T07:25:42.523Z,90.50
2018-02-18T07:28:10.802Z,90.12
2018-02-18T07:30:39.077Z,90.12
2018-02-18T07:33:07.328Z,90.04
2018-02-18T07:35:36.547Z,90.74
2018-02-18T07:38:04.813Z,91.93
2018-02-18T07:40:33.082Z,91.85
2018-02-18T07:43:01.413Z,91.93
2018-02-18T07:45:29.691Z,93.00
2018-02-18T07:47:57.963Z,93.58
2018-02-18T07:50:26.243Z,92.55
2018-02-18T07:52:54.516Z,91.44
2018-02-18T07:55:22.782Z,90.32
2018-02-18T07:57:51.087Z,90.16
2018-02-18T08:00:20.118Z,89.70
2018-02-18T08:02:48.404Z,88.82
2018-02-18T08:05:16.668Z,88.49
2018-02-18T08:07:44.952Z,88.04
2018-02-18T08:10:13.215Z,88.28
2018-02-18T08:12:41.489Z,88.49
2018-02-18T08:15:09.758Z,88.25
2018-02-18T08:17:38.042Z,88.07
2018-02-18T08:20:06.310Z,88.35
2018-02-18T08:22:34.599Z,88.20
2018-02-18T08:25:02.867Z,88.60
2018-02-18T08:27:31.143Z,89.10
2018-02-18T08:29:59.415Z,89.00
2018-02-18T08:32:27.700Z,88.27
2018-02-18T08:34:55.966Z,88.37
2018-02-18T08:37:24.240Z,89.00
2018-02-18T08:39:52.503Z,88.32
2018-02-18T08:42:21.547Z,87.38
2018-02-18T08:44:49.808Z,86.48
2018-02-18T08:47:18.070Z,86.46
2018-02-18T08:49:46.352Z,86.15
2018-02-18T08:52:14.617Z,85.35
2018-02-18T08:54:42.920Z,85.31
2018-02-18T08:57:11.178Z,86.09
2018-02-18T08:59:39.463Z,85.39
2018-02-18T09:02:07.725Z,84.91
2018-02-18T09:04:36.027Z,84.47
2018-02-18T09:07:04.315Z,83.80
2018-02-18T09:09:32.580Z,83.48
2018-02-18T09:12:00.864Z,83.33
2018-02-18T09:14:29.979Z,83.09
2018-02-18T09:16:58.248Z,83.08
2018-02-18T09:19:26.562Z,82.52
2018-02-18T09:21:55.591Z,81.12
2018-02-18T09:24:23.883Z,82.55
2018-02-18T09:26:52.911Z,83.18
2018-02-18T09:29:21.935Z,83.70
2018-02-18T09:31:50.207Z,84.39
2018-02-18T09:34:18.472Z,85.69
2018-02-18T09:36:46.756Z,86.66
2018-02-18T09:39:15.016Z,86.50
2018-02-18T09:41:44.037Z,84.63
2018-02-18T09:44:12.298Z,85.16
2018-02-18T09:46:40.551Z,84.15
2018-02-18T09:49:09.584Z,84.46
2018-02-18T09:51:37.839Z,84.69
2018-02-18T09:54:06.852Z,83.63
2018-02-18T09:56:35.119Z,84.77
2018-02-18T09:59:03.367Z,83.68
2018-02-18T10:01:32.410Z,84.89
2018-02-18T10:04:00.654Z,84.30
2018-02-18T10:06:28.913Z,84.27
2018-02-18T10:08:57.944Z,84.20
2018-02-18T10:11:26.217Z,84.08
2018-02-18T10:13:54.483Z,83.05
2018-02-18T10:16:22.739Z,83.73
2018-02-18T10:18:51.759Z,81.60
2018-02-18T10:21:20.026Z,81.28
2018-02-18T10:23:48.267Z,82.66
2018-02-18T10:26:16.532Z,83.85
2018-02-18T10:28:44.782Z,82.21
2018-02-18T10:31:13.038Z,81.38
2018-02-18T10:33:41.315Z,81.28
2018-02-18T10:36:09.567Z,80.63
2018-02-18T10:38:38.603Z,80.21
2018-02-18T10:41:06.895Z,79.91
2018-02-18T10:43:35.123Z,79.68
2018-02-18T10:46:03.390Z,79.46
2018-02-18T10:48:32.406Z,78.55
2018-02-18T10:51:00.692Z,78.92
2018-02-18T10:53:28.978Z,77.79
2018-02-18T10:55:57.272Z,79.51
2018-02-18T10:58:25.559Z,79.84
2018-02-18T11:00:53.834Z,78.30
2018-02-18T11:03:22.096Z,78.47
2018-02-18T11:05:50.346Z,77.38
2018-02-18T11:08:18.608Z,76.38
2018-02-18T11:10:46.934Z,74.78
2018-02-18T11:13:15.251Z,75.03
2018-02-18T11:15:43.515Z,73.79
2018-02-18T11:18:12.588Z,74.93
2018-02-18T11:20:40.976Z,73.83
2018-02-18T11:23:10.043Z,74.81
2018-02-18T11:25:38.294Z,73.57
2018-02-18T11:28:06.577Z,74.15
2018-02-18T11:30:34.836Z,73.31
2018-02-18T11:33:03.166Z,72.67
2018-02-18T11:35:32.207Z,71.24
2018-02-18T11:38:00.485Z,70.34
2018-02-18T11:40:28.841Z,69.69
2018-02-18T11:42:57.122Z,68.24
2018-02-18T11:45:25.428Z,68.97
2018-02-18T11:47:53.750Z,68.67
2018-02-18T11:50:22.007Z,67.77
2018-02-18T11:52:50.288Z,68.62
2018-02-18T11:55:18.671Z,68.38
2018-02-18T11:57:46.944Z,67.81
2018-02-18T12:00:15.232Z,66.00
2018-02-18T12:02:43.486Z,65.61
2018-02-18T12:05:11.783Z,65.36
2018-02-18T12:07:40.054Z,65.80
2018-02-18T12:10:08.371Z,64.55
2018-02-18T12:12:36.643Z,64.81
2018-02-18T12:15:05.023Z,64.76
2018-02-18T12:17:33.641Z,65.10
2018-02-18T12:20:04.302Z,64.17
2018-02-18T12:22:34.139Z,62.77
2018-02-18T12:25:04.722Z,61.85
2018-02-18T12:27:34.559Z,61.06
2018-02-18T12:30:03.729Z,60.62
2018-02-18T12:32:32.857Z,59.70
2018-02-18T12:35:02.471Z,59.38
2018-02-18T12:37:31.789Z,58.31
2018-02-18T12:40:00.761Z,58.72
2018-02-18T12:42:29.645Z,58.83
2018-02-18T12:44:58.420Z,58.18
2018-02-18T12:47:27.620Z,59.00
2018-02-18T12:49:56.644Z,57.66
2018-02-18T12:52:25.760Z,57.13
2018-02-18T12:54:54.837Z,57.18
2018-02-18T12:57:23.846Z,56.06
2018-02-18T12:59:53.111Z,55.03
2018-02-18T13:02:21.619Z,55.56
2018-02-18T13:04:50.814Z,56.55
2018-02-18T13:07:20.549Z,55.55
2018-02-18T13:09:50.608Z,54.97
2018-02-18T13:12:19.424Z,55.41
2018-02-18T13:14:48.565Z,54.07
2018-02-18T13:17:17.361Z,54.21
2018-02-18T13:19:47.078Z,53.80
2018-02-18T13:22:16.364Z,54.17
2018-02-18T13:24:45.544Z,54.86
2018-02-18T13:27:15.287Z,54.60
2018-02-18T13:29:44.118Z,54.09
2018-02-18T13:32:12.480Z,54.35
2018-02-18T13:34:41.655Z,54.33
2018-02-18T13:37:10.882Z,54.24
2018-02-18T13:39:39.247Z,53.05
2018-02-18T13:42:08.302Z,53.20
2018-02-18T13:44:36.644Z,53.39
2018-02-18T13:47:04.940Z,52.87
2018-02-18T13:49:33.238Z,52.14
2018-02-18T13:52:01.515Z,51.96
2018-02-18T13:54:29.794Z,51.13
2018-02-18T13:56:58.108Z,51.14
2018-02-18T13:59:27.205Z,49.87
2018-02-18T14:01:56.239Z,50.06
2018-02-18T14:04:24.535Z,50.05
2018-02-18T14:06:52.902Z,50.82
2018-02-18T14:09:21.332Z,50.11
2018-02-18T14:11:49.745Z,50.14
2018-02-18T14:14:18.167Z,50.42
2018-02-18T14:16:47.765Z,49.63
2018-02-18T14:19:16.459Z,48.82
2018-02-18T14:21:44.871Z,49.65
2018-02-18T14:24:13.344Z,50.58
2018-02-18T14:26:41.698Z,50.05
2018-02-18T14:29:10.784Z,49.75
2018-02-18T14:31:39.063Z,49.95
2018-02-18T14:34:07.464Z,50.42
2018-02-18T14:36:35.887Z,50.08
2018-02-18T14:39:04.743Z,48.85
2018-02-18T14:41:51.571Z,47.56
2018-02-18T14:44:37.851Z,47.33
2018-02-18T14:47:24.556Z,47.70
2018-02-18T14:50:10.917Z,47.33
2018-02-18T14:52:57.384Z,45.61
2018-02-18T14:55:41.842Z,45.06
2018-02-18T14:58:11.553Z,44.90
2018-02-18T15:00:41.480Z,45.44
2018-02-18T15:03:11.385Z,45.70
2018-02-18T15:05:41.240Z,45.50
2018-02-18T15:08:10.734Z,45.25
2018-02-18T15:10:39.994Z,47.54
2018-02-18T15:13:10.880Z,48.00
2018-02-18T15:15:40.423Z,47.46
2018-02-18T15:18:11.153Z,45.59
2018-02-18T15:20:40.991Z,44.85
2018-02-18T15:23:10.911Z,43.84
2018-02-18T15:25:40.221Z,44.06
2018-02-18T15:28:10.137Z,44.71
2018-02-18T15:30:40.106Z,45.62
2018-02-18T15:33:09.482Z,46.60
2018-02-18T15:35:38.945Z,48.30
2018-02-18T15:38:08.320Z,49.33
2018-02-18T15:40:37.698Z,50.53
2018-02-18T15:43:07.278Z,51.59
2018-02-18T15:45:38.097Z,52.93
2018-02-18T15:48:07.458Z,53.72
2018-02-18T15:50:36.685Z,55.21
2018-02-18T15:53:05.957Z,56.87
2018-02-18T15:55:35.440Z,57.77
2018-02-18T15:58:05.621Z,59.27
2018-02-18T16:00:35.727Z,59.59
2018-02-18T16:03:05.276Z,59.72
2018-02-18T16:05:34.627Z,60.36
2018-02-18T16:08:04.075Z,60.82
2018-02-18T16:10:33.334Z,61.84
2018-02-18T16:13:02.684Z,62.04
2018-02-18T16:15:31.946Z,61.73
2018-02-18T16:18:02.109Z,62.42
2018-02-18T16:20:32.239Z,62.10
2018-02-18T16:23:01.620Z,62.32
2018-02-18T16:25:30.859Z,63.41
2018-02-18T16:28:00.948Z,63.43
2018-02-18T16:30:30.336Z,63.49
2018-02-18T16:32:59.697Z,64.71
2018-02-18T16:35:29.050Z,65.78
2018-02-18T16:37:58.318Z,66.01
2018-02-18T16:40:27.850Z,67.64
2018-02-18T16:42:57.107Z,68.47
2018-02-18T16:45:26.393Z,70.36
2018-02-18T16:47:56.440Z,70.79
2018-02-18T16:50:25.755Z,72.28
2018-02-18T16:52:55.242Z,73.47
2018-02-18T16:55:24.531Z,73.55
2018-02-18T16:57:54.911Z,73.02
2018-02-18T17:00:24.162Z,72.57
2018-02-18T17:02:53.556Z,72.73
2018-02-18T17:05:22.875Z,72.75
2018-02-18T17:07:52.223Z,73.61
2018-02-18T17:10:21.546Z,73.95
2018-02-18T17:12:51.681Z,74.44
2018-02-18T17:15:20.967Z,74.23
2018-02-18T17:17:51.068Z,74.92
2018-02-18T17:20:21.161Z,75.12
2018-02-18T17:22:50.605Z,74.97
2018-02-18T17:25:20.823Z,74.84
2018-02-18T17:27:50.992Z,75.44
2018-02-18T17:30:21.039Z,75.48
2018-02-18T17:32:50.423Z,76.26
2018-02-18T17:35:19.818Z,76.61
2018-02-18T17:37:50.119Z,76.41
2018-02-18T17:40:20.254Z,76.56
2018-02-18T17:42:49.615Z,76.32
2018-02-18T17:45:19.742Z,77.31
2018-02-18T17:47:49.163Z,78.17
2018-02-18T17:50:18.540Z,78.83
2018-02-18T17:52:49.014Z,78.57
2018-02-18T17:55:18.521Z,78.88
2018-02-18T17:57:47.847Z,78.29
2018-02-18T18:00:18.279Z,77.54
2018-02-18T18:02:47.717Z,76.94
2018-02-18T18:05:17.010Z,76.58
2018-02-18T18:07:46.458Z,76.34
2018-02-18T18:10:17.287Z,76.25
2018-02-18T18:12:46.852Z,76.03
2018-02-18T18:15:16.469Z,76.17
2018-02-18T18:17:46.369Z,76.74
2018-02-18T18:20:16.529Z,77.04
2018-02-18T18:22:45.915Z,76.90
2018-02-18T18:25:16.470Z,77.32
2018-02-18T18:27:45.918Z,77.51
2018-02-18T18:30:16.432Z,77.65
2018-02-18T18:32:46.666Z,77.60
2018-02-18T18:35:17.252Z,78.05
2018-02-18T18:37:46.657Z,79.17
2018-02-18T18:40:16.680Z,80.58
2018-02-18T18:42:47.127Z,81.39
2018-02-18T18:45:17.282Z,82.11
2018-02-18T18:47:46.666Z,82.24
2018-02-18T18:50:17.183Z,81.94
2018-02-18T18:52:47.465Z,82.35
2018-02-18T18:55:17.766Z,82.72
2018-02-18T18:57:47.245Z,82.43
2018-02-18T19:00:17.647Z,82.43
2018-02-18T19:02:47.079Z,81.71
2018-02-18T19:05:17.252Z,81.52
2018-02-18T19:07:46.642Z,81.02
2018-02-18T19:10:18.166Z,80.88
2018-02-18T19:12:47.561Z,80.66
2018-02-18T19:15:16.870Z,80.74
2018-02-18T19:17:46.134Z,80.34
2018-02-18T19:20:16.291Z,80.06
2018-02-18T19:22:46.949Z,79.90
2018-02-18T19:25:16.484Z,79.85
2018-02-18T19:27:45.805Z,79.95
2018-02-18T19:30:15.221Z,79.94
2018-02-18T19:32:44.612Z,79.71
2018-02-18T19:35:13.967Z,79.96
2018-02-18T19:37:43.757Z,80.19
2018-02-18T19:40:13.066Z,80.31
2018-02-18T19:42:42.563Z,80.10
2018-02-18T19:45:11.875Z,80.68
2018-02-18T19:47:41.227Z,81.15
2018-02-18T19:50:11.413Z,81.03
2018-02-18T19:52:40.708Z,81.13
2018-02-18T19:55:10.226Z,81.18
2018-02-18T19:57:40.402Z,81.43
2018-02-18T20:00:09.764Z,81.72
2018-02-18T20:02:39.845Z,81.88
2018-02-18T20:05:10.302Z,81.77
2018-02-18T20:07:40.393Z,81.76
2018-02-18T20:10:10.561Z,81.84
2018-02-18T20:12:41.366Z,81.79
2018-02-18T20:15:11.261Z,83.80
2018-02-18T20:17:41.444Z,83.74
2018-02-18T20:20:10.947Z,83.54
2018-02-18T20:22:40.842Z,87.37
2018-02-18T20:25:11.016Z,87.02
2018-02-18T20:27:40.630Z,86.34
2018-02-18T20:30:10.883Z,87.13
2018-02-18T20:32:40.204Z,88.11
2018-02-18T20:35:10.392Z,87.36
2018-02-18T20:37:39.761Z,86.41
2018-02-18T20:40:09.273Z,85.93
2018-02-18T20:42:38.714Z,85.62
2018-02-18T20:45:09.810Z,85.40
2018-02-18T20:47:40.391Z,85.10
2018-02-18T20:50:10.650Z,84.89
2018-02-18T20:52:41.493Z,84.59
2018-02-18T20:55:10.918Z,83.96
2018-02-18T20:57:40.170Z,83.68
2018-02-18T21:00:09.645Z,83.59
2018-02-18T21:02:39.002Z,83.56
2018-02-18T21:05:08.315Z,83.87
2018-02-18T21:07:37.876Z,84.09
2018-02-18T21:10:07.934Z,83.83
2018-02-18T21:12:37.392Z,84.03
2018-02-18T21:15:07.521Z,83.55
2018-02-18T21:17:37.260Z,83.35
2018-02-18T21:20:06.879Z,84.33
2018-02-18T21:22:37.268Z,84.68
2018-02-18T21:25:06.518Z,84.22
2018-02-18T21:27:35.930Z,84.24
2018-02-18T21:30:05.262Z,85.03
2018-02-18T21:32:35.415Z,85.26
2018-02-18T21:35:04.816Z,86.15
2018-02-18T21:37:34.218Z,86.74
2018-02-18T21:40:03.629Z,87.19
2018-02-18T21:42:33.004Z,86.77
2018-02-18T21:45:02.338Z,87.73
2018-02-18T21:47:31.720Z,88.40
2018-02-18T21:50:01.084Z,88.36
2018-02-18T21:52:31.131Z,89.12
2018-02-18T21:55:01.419Z,88.69
2018-02-18T21:57:30.733Z,88.01
2018-02-18T22:00:00.908Z,87.78
2018-02-18T22:02:30.143Z,87.21
2018-02-18T22:05:00.212Z,87.00
2018-02-18T22:07:29.525Z,86.70
2018-02-18T22:09:58.602Z,86.68
2018-02-18T22:12:26.928Z,86.75
2018-02-18T22:14:55.293Z,86.27
2018-02-18T22:17:24.366Z,86.61
2018-02-18T22:19:52.651Z,86.96
2018-02-18T22:22:21.687Z,87.46
2018-02-18T22:24:49.965Z,88.06
2018-02-18T22:27:18.224Z,87.71
2018-02-18T22:29:46.511Z,88.14
2018-02-18T22:32:14.784Z,87.91
2018-02-18T22:34:43.053Z,87.25
2018-02-18T22:37:11.331Z,87.35
2018-02-18T22:39:39.588Z,87.43
2018-02-18T22:42:08.643Z,87.73
2018-02-18T22:44:36.945Z,87.50
2018-02-18T22:47:05.227Z,87.28
2018-02-18T22:49:34.253Z,86.83
2018-02-18T22:52:02.570Z,86.30
2018-02-18T22:54:30.846Z,86.10
2018-02-18T22:56:59.311Z,85.80
2018-02-18T22:59:27.608Z,85.30
2018-02-18T23:01:55.870Z,86.04
2018-02-18T23:04:24.147Z,86.68
2018-02-18T23:06:52.412Z,86.72
2018-02-18T23:09:20.679Z,86.88
2018-02-18T23:11:48.957Z,87.44
2018-02-18T23:14:17.218Z,87.71
2018-02-18T23:16:45.498Z,88.16
2018-02-18T23:19:13.772Z,88.28
2018-02-18T23:21:42.034Z,87.61
2018-02-18T23:24:10.332Z,88.65
2018-02-18T23:26:38.596Z,89.57
2018-02-18T23:29:06.866Z,91.17
2018-02-18T23:31:35.131Z,93.82
2018-02-18T23:34:03.410Z,93.65
2018-02-18T23:36:31.683Z,92.49
2018-02-18T23:38:59.941Z,92.28
2018-02-18T23:41:28.983Z,90.96
2018-02-18T23:43:57.259Z,89.90
2018-02-18T23:46:25.519Z,89.60
2018-02-18T23:48:53.793Z,89.72
2018-02-18T23:51:22.077Z,90.05
2018-02-18T23:53:50.387Z,89.43
2018-02-18T23:56:18.675Z,89.36
2018-02-18T23:58:46.935Z,88.69
